createdAt,value
2018-11-23T00:02:25.333Z,92.62
2018-11-23T00:04:54.348Z,64.70
2018-11-23T00:07:22.905Z,49.67
2018-11-23T00:09:51.277Z,68.33
2018-11-23T00:12:19.822Z,53.73
2018-11-23T00:14:48.409Z,56.60
2018-11-23T00:17:16.755Z,47.13
2018-11-23T00:19:45.084Z,44.73
2018-11-23T00:22:13.937Z,83.30
2018-11-23T00:24:43.615Z,51.10
2018-11-23T00:27:12.201Z,50.58
2018-11-23T00:29:40.861Z,42.58
2018-11-23T00:32:09.195Z,55.47
2018-11-23T00:34:37.681Z,60.53
2018-11-23T00:37:06.102Z,58.73
2018-11-23T00:39:34.760Z,73.12
2018-11-23T00:42:03.489Z,62.40
2018-11-23T00:44:31.951Z,42.87
2018-11-23T00:47:00.590Z,59.87
2018-11-23T00:49:29.131Z,43.50
2018-11-23T00:51:57.746Z,42.93
2018-11-23T00:54:26.376Z,38.40
2018-11-23T00:56:54.718Z,47.70
2018-11-23T00:59:23.442Z,41.60
2018-11-23T01:01:57.478Z,54.93
2018-11-23T01:04:26.008Z,40.53
2018-11-23T01:06:54.600Z,45.60
2018-11-23T01:09:23.433Z,36.20
2018-11-23T01:11:52.286Z,46.02
2018-11-23T01:14:20.581Z,43.50
2018-11-23T01:16:48.897Z,40.13
2018-11-23T01:19:17.197Z,51.03
2018-11-23T01:21:45.795Z,45.23
2018-11-23T01:26:51.426Z,43.80
2018-11-23T01:29:20.354Z,44.60
2018-11-23T01:31:49.072Z,39.88
2018-11-23T01:34:17.789Z,37.30
2018-11-23T01:36:46.993Z,45.77
2018-11-23T01:39:15.549Z,36.83
2018-11-23T01:41:44.136Z,44.53
2018-11-23T01:44:12.421Z,37.03
2018-11-23T01:46:41.260Z,67.17
2018-11-23T01:49:10.235Z,47.90
2018-11-23T01:51:38.813Z,35.10
2018-11-23T01:54:07.073Z,53.87
2018-11-23T01:56:35.353Z,43.93
2018-11-23T01:59:04.003Z,38.67
2018-11-23T02:01:32.679Z,51.23
2018-11-23T02:04:01.240Z,46.90
2018-11-23T02:06:29.519Z,37.60
2018-11-23T02:08:58.037Z,50.63
2018-11-23T02:11:26.312Z,40.03
2018-11-23T02:13:54.614Z,42.33
2018-11-23T02:16:23.549Z,34.67
2018-11-23T02:18:52.304Z,42.63
2018-11-23T02:21:20.591Z,51.60
2018-11-23T02:23:48.892Z,38.93
2018-11-23T02:26:17.800Z,53.87
2018-11-23T02:28:46.720Z,52.33
2018-11-23T02:31:15.686Z,49.60
2018-11-23T02:33:43.994Z,64.17
2018-11-23T02:36:12.682Z,100.00
2018-11-23T02:38:40.980Z,109.73
2018-11-23T02:41:09.539Z,57.95
2018-11-23T02:43:38.013Z,48.93
2018-11-23T02:46:06.301Z,78.73
2018-11-23T02:48:34.599Z,71.23
2018-11-23T02:51:02.990Z,45.40
2018-11-23T02:53:31.282Z,34.93
2018-11-23T02:55:59.618Z,33.30
2018-11-23T02:58:28.496Z,73.03
2018-11-23T03:00:56.993Z,127.30
2018-11-23T03:03:25.741Z,60.40
2018-11-23T03:05:54.279Z,62.73
2018-11-23T03:08:22.921Z,59.27
2018-11-23T03:10:51.552Z,63.93
2018-11-23T03:13:19.836Z,53.07
2018-11-23T03:15:48.187Z,106.63
2018-11-23T03:18:16.765Z,70.87
2018-11-23T03:20:45.037Z,60.50
2018-11-23T03:23:13.318Z,93.23
2018-11-23T03:25:42.095Z,61.67
2018-11-23T03:28:10.389Z,70.50
2018-11-23T03:30:38.660Z,54.00
2018-11-23T03:33:07.305Z,78.63
2018-11-23T03:35:35.782Z,74.50
2018-11-23T03:38:04.385Z,51.68
2018-11-23T03:40:32.718Z,49.60
2018-11-23T03:43:00.994Z,62.03
2018-11-23T03:45:29.592Z,44.63
2018-11-23T03:47:57.969Z,45.60
2018-11-23T03:50:26.565Z,89.60
2018-11-23T03:52:55.333Z,121.23
2018-11-23T03:55:23.657Z,69.17
2018-11-23T03:57:52.094Z,82.60
2018-11-23T04:00:22.723Z,72.23
2018-11-23T04:02:51.865Z,56.30
2018-11-23T04:05:20.204Z,78.90
2018-11-23T04:07:48.748Z,43.63
2018-11-23T04:10:17.982Z,88.03
2018-11-23T04:12:47.033Z,99.63
2018-11-23T04:15:16.032Z,40.00
2018-11-23T04:17:44.595Z,134.83
2018-11-23T04:20:14.302Z,128.32
2018-11-23T04:22:43.368Z,87.93
2018-11-23T04:25:12.273Z,98.12
2018-11-23T04:27:41.042Z,65.90
2018-11-23T04:30:10.939Z,79.80
2018-11-23T04:32:39.224Z,74.10
2018-11-23T04:35:10.089Z,60.63
2018-11-23T04:37:38.381Z,53.97
2018-11-23T04:40:08.269Z,60.30
2018-11-23T04:42:36.596Z,46.17
2018-11-23T04:45:05.692Z,72.03
2018-11-23T04:47:34.320Z,50.95
2018-11-23T04:50:02.889Z,74.05
2018-11-23T04:52:31.465Z,63.30
2018-11-23T04:54:59.761Z,64.23
2018-11-23T04:57:28.658Z,83.17
2018-11-23T04:59:57.722Z,97.27
2018-11-23T05:02:26.212Z,47.97
2018-11-23T05:04:54.898Z,63.47
2018-11-23T05:07:23.449Z,55.17
2018-11-23T05:09:52.417Z,56.57
2018-11-23T05:12:21.099Z,48.53
2018-11-23T05:14:49.419Z,90.73
2018-11-23T05:17:18.172Z,34.78
2018-11-23T05:21:18.652Z,47.47
2018-11-23T05:23:47.440Z,56.73
2018-11-23T05:26:16.648Z,49.63
2018-11-23T05:28:45.032Z,76.80
2018-11-23T05:31:22.417Z,57.30
2018-11-23T05:33:50.677Z,48.40
2018-11-23T05:36:19.279Z,50.37
2018-11-23T05:38:47.702Z,54.90
2018-11-23T05:41:15.981Z,54.27
2018-11-23T05:43:44.407Z,41.27
2018-11-23T05:46:12.704Z,48.30
2018-11-23T05:48:41.395Z,54.23
2018-11-23T05:51:09.820Z,48.53
2018-11-23T05:53:38.128Z,41.80
2018-11-23T05:56:07.097Z,42.20
2018-11-23T05:58:35.449Z,62.83
2018-11-23T06:01:04.812Z,35.27
2018-11-23T06:03:33.274Z,34.90
2018-11-23T06:06:01.722Z,44.50
2018-11-23T06:08:30.296Z,44.58
2018-11-23T06:10:58.566Z,45.03
2018-11-23T06:13:27.097Z,44.90
2018-11-23T06:15:55.707Z,40.80
2018-11-23T06:18:24.149Z,57.10
2018-11-23T06:20:52.425Z,41.00
2018-11-23T06:23:20.807Z,62.93
2018-11-23T06:25:58.269Z,68.03
2018-11-23T06:28:26.841Z,56.50
2018-11-23T06:30:55.323Z,39.03
2018-11-23T06:33:34.763Z,72.37
2018-11-23T06:36:03.084Z,76.20
2018-11-23T06:38:31.362Z,52.00
2018-11-23T06:40:59.784Z,40.50
2018-11-23T06:43:28.292Z,56.97
2018-11-23T06:45:57.690Z,37.17
2018-11-23T06:48:26.245Z,37.53
2018-11-23T06:50:55.086Z,63.02
2018-11-23T06:53:23.567Z,60.07
2018-11-23T06:55:52.508Z,52.17
2018-11-23T06:58:20.764Z,35.67
2018-11-23T07:00:49.668Z,43.87
2018-11-23T07:03:18.641Z,33.13
2018-11-23T07:05:46.968Z,34.33
2018-11-23T07:08:15.241Z,86.37
2018-11-23T07:10:43.539Z,70.73
2018-11-23T07:13:11.822Z,64.10
2018-11-23T07:15:40.631Z,50.23
2018-11-23T07:18:09.286Z,45.90
2018-11-23T07:20:37.832Z,50.15
2018-11-23T07:23:06.413Z,65.50
2018-11-23T07:25:35.393Z,33.60
2018-11-23T07:28:03.978Z,34.00
2018-11-23T07:30:32.917Z,40.85
2018-11-23T07:33:01.243Z,48.97
2018-11-23T07:35:30.123Z,52.10
2018-11-23T07:37:58.629Z,21.57
2018-11-23T07:40:40.237Z,38.90
2018-11-23T07:43:08.509Z,49.33
2018-11-23T07:45:37.213Z,61.80
2018-11-23T07:48:06.115Z,52.90
2018-11-23T07:50:34.940Z,34.77
2018-11-23T07:53:03.260Z,41.40
2018-11-23T07:55:31.684Z,35.87
2018-11-23T07:58:00.027Z,49.90
2018-11-23T08:00:28.961Z,42.00
2018-11-23T08:02:57.370Z,47.63
2018-11-23T08:05:26.015Z,38.93
2018-11-23T08:07:54.583Z,36.55
2018-11-23T08:10:22.144Z,34.43
2018-11-23T08:12:51.327Z,88.07
2018-11-23T08:15:21.096Z,44.90
2018-11-23T08:17:49.649Z,35.30
2018-11-23T08:20:19.261Z,41.17
2018-11-23T08:22:48.206Z,60.03
2018-11-23T08:25:18.066Z,55.78
2018-11-23T08:27:47.350Z,39.13
2018-11-23T08:30:19.445Z,59.47
2018-11-23T08:32:47.888Z,51.53
2018-11-23T08:35:16.799Z,63.50
2018-11-23T08:37:45.665Z,55.00
2018-11-23T08:40:17.583Z,45.15
2018-11-23T08:42:47.347Z,49.58
2018-11-23T08:45:17.776Z,37.53
2018-11-23T08:47:46.183Z,42.30
2018-11-23T08:50:17.117Z,33.40
2018-11-23T08:52:45.985Z,31.77
2018-11-23T08:55:15.376Z,35.87
2018-11-23T08:57:43.985Z,26.33
2018-11-23T09:00:23.520Z,27.90
2018-11-23T09:02:53.236Z,33.13
2018-11-23T09:05:21.917Z,26.20
2018-11-23T09:07:52.011Z,29.75
2018-11-23T09:10:22.088Z,34.43
2018-11-23T09:12:52.180Z,24.57
2018-11-23T09:15:20.657Z,28.73
2018-11-23T09:17:49.296Z,26.47
2018-11-23T09:20:18.412Z,29.05
2018-11-23T09:22:47.293Z,38.17
2018-11-23T09:25:17.393Z,32.40
2018-11-23T09:27:45.792Z,28.10
2018-11-23T09:30:16.708Z,28.87
2018-11-23T09:32:45.441Z,26.47
2018-11-23T09:35:14.324Z,34.15
2018-11-23T09:37:43.368Z,25.70
2018-11-23T09:40:14.340Z,25.00
2018-11-23T09:42:43.168Z,25.30
2018-11-23T09:45:13.981Z,31.47
2018-11-23T09:47:42.818Z,25.47
2018-11-23T09:50:12.967Z,27.57
2018-11-23T09:52:41.904Z,25.67
2018-11-23T09:55:10.853Z,19.60
2018-11-23T09:57:39.661Z,25.77
2018-11-23T10:00:19.920Z,25.82
2018-11-23T10:02:49.341Z,18.35
2018-11-23T10:05:18.656Z,17.73
2018-11-23T10:07:48.640Z,18.87
2018-11-23T10:10:17.972Z,17.20
2018-11-23T10:12:46.457Z,21.53
2018-11-23T10:15:16.046Z,21.47
2018-11-23T10:17:44.931Z,17.82
2018-11-23T10:20:16.434Z,17.17
2018-11-23T10:22:45.333Z,19.10
2018-11-23T10:25:15.993Z,20.63
2018-11-23T10:27:45.160Z,21.60
2018-11-23T10:30:15.805Z,21.13
2018-11-23T10:32:44.912Z,23.53
2018-11-23T10:35:13.554Z,20.30
2018-11-23T10:37:43.310Z,20.95
2018-11-23T10:40:14.072Z,26.17
2018-11-23T10:42:43.284Z,21.03
2018-11-23T10:45:16.408Z,20.83
2018-11-23T10:47:45.273Z,17.90
2018-11-23T10:50:15.424Z,19.37
2018-11-23T10:52:44.311Z,21.03
2018-11-23T10:55:15.083Z,13.30
2018-11-23T10:57:43.631Z,16.95
2018-11-23T11:02:21.583Z,19.25
2018-11-23T11:04:52.370Z,17.47
2018-11-23T11:07:20.681Z,17.43
2018-11-23T11:09:49.029Z,18.30
2018-11-23T11:12:17.912Z,14.65
2018-11-23T11:14:46.205Z,16.37
2018-11-23T11:17:14.781Z,15.40
2018-11-23T11:19:43.996Z,16.03
2018-11-23T11:22:12.560Z,14.77
2018-11-23T11:24:41.152Z,16.50
2018-11-23T11:27:09.706Z,12.30
2018-11-23T11:29:38.027Z,14.10
2018-11-23T11:32:06.980Z,15.27
2018-11-23T11:34:35.527Z,14.90
2018-11-23T11:37:04.080Z,18.30
2018-11-23T11:39:32.668Z,15.57
2018-11-23T11:42:01.224Z,11.07
2018-11-23T11:44:29.500Z,19.57
2018-11-23T11:46:57.892Z,16.17
2018-11-23T11:49:26.425Z,18.50
2018-11-23T11:51:54.977Z,15.18
2018-11-23T11:54:23.287Z,13.33
2018-11-23T11:56:51.560Z,16.23
2018-11-23T11:59:19.864Z,14.30
2018-11-23T12:01:48.281Z,14.17
2018-11-23T12:04:16.678Z,13.97
2018-11-23T12:06:44.960Z,18.60
2018-11-23T12:09:13.859Z,10.72
2018-11-23T12:11:42.143Z,15.47
2018-11-23T12:14:10.412Z,18.03
2018-11-23T12:16:39.160Z,10.30
2018-11-23T12:19:08.082Z,14.90
2018-11-23T12:26:32.341Z,10.20
2018-11-23T12:29:01.499Z,12.73
2018-11-23T12:31:29.843Z,13.30
2018-11-23T12:33:58.359Z,14.07
2018-11-23T12:36:27.848Z,11.20
2018-11-23T12:38:56.116Z,16.90
2018-11-23T12:41:24.664Z,16.00
2018-11-23T12:43:53.461Z,16.33
2018-11-23T12:46:22.615Z,13.50
2018-11-23T12:48:51.251Z,12.90
2018-11-23T12:51:19.869Z,12.57
2018-11-23T12:53:48.928Z,11.80
2018-11-23T12:56:17.548Z,13.23
2018-11-23T12:58:46.149Z,14.87
2018-11-23T13:01:14.421Z,13.30
2018-11-23T13:03:43.337Z,9.18
2018-11-23T13:06:13.969Z,14.13
2018-11-23T13:08:42.674Z,12.10
2018-11-23T13:11:11.117Z,17.20
2018-11-23T13:13:39.653Z,13.70
2018-11-23T13:16:08.229Z,12.00
2018-11-23T13:18:36.555Z,16.50
2018-11-23T13:21:05.752Z,13.90
2018-11-23T13:23:34.072Z,12.20
2018-11-23T13:26:02.896Z,21.73
2018-11-23T13:28:31.353Z,14.43
2018-11-23T13:30:59.773Z,16.83
2018-11-23T13:33:28.415Z,15.08
2018-11-23T13:35:56.690Z,17.37
2018-11-23T13:38:25.487Z,22.70
2018-11-23T13:40:54.040Z,22.30
2018-11-23T13:43:22.313Z,13.70
2018-11-23T13:45:50.865Z,18.07
2018-11-23T13:48:20.037Z,21.13
2018-11-23T13:50:47.757Z,19.57
2018-11-23T13:53:16.367Z,22.20
2018-11-23T13:55:45.259Z,33.53
2018-11-23T13:58:13.558Z,26.63
2018-11-23T14:00:41.896Z,19.13
2018-11-23T14:03:10.586Z,23.18
2018-11-23T14:05:38.894Z,23.90
2018-11-23T14:08:07.395Z,26.47
2018-11-23T14:10:36.325Z,28.00
2018-11-23T14:13:11.308Z,29.40
2018-11-23T14:15:33.655Z,28.70
2018-11-23T14:18:02.397Z,27.17
2018-11-23T14:20:30.970Z,28.80
2018-11-23T14:22:59.811Z,29.50
2018-11-23T14:25:30.044Z,27.63
2018-11-23T14:27:59.031Z,26.10
2018-11-23T14:30:29.929Z,26.17
2018-11-23T14:32:58.802Z,29.90
2018-11-23T14:35:29.013Z,26.35
2018-11-23T14:37:58.982Z,33.70
2018-11-23T14:40:27.470Z,34.10
2018-11-23T14:42:56.092Z,25.60
2018-11-23T14:45:26.628Z,31.60
2018-11-23T14:47:56.013Z,32.40
2018-11-23T14:50:26.618Z,30.90
2018-11-23T14:52:55.692Z,35.30
2018-11-23T14:55:24.836Z,27.60
2018-11-23T14:57:54.232Z,34.00
2018-11-23T15:00:26.117Z,26.90
2018-11-23T15:02:55.789Z,36.03
2018-11-23T15:05:24.355Z,36.65
2018-11-23T15:07:53.085Z,33.85
2018-11-23T15:10:24.485Z,35.47
2018-11-23T15:12:54.292Z,38.20
2018-11-23T15:15:24.945Z,41.50
2018-11-23T15:17:54.518Z,34.83
2018-11-23T15:20:26.383Z,37.70
2018-11-23T15:22:56.696Z,39.43
2018-11-23T15:25:24.999Z,35.73
2018-11-23T15:27:53.752Z,33.97
2018-11-23T15:30:23.745Z,38.63
2018-11-23T15:32:52.123Z,39.57
2018-11-23T15:35:20.486Z,36.50
2018-11-23T15:37:49.462Z,41.70
2018-11-23T15:40:20.812Z,41.08
2018-11-23T15:42:50.524Z,39.27
2018-11-23T15:45:20.919Z,40.20
2018-11-23T15:47:49.426Z,41.13
2018-11-23T15:50:19.625Z,41.60
2018-11-23T15:52:48.446Z,35.83
2018-11-23T15:55:19.866Z,46.40
2018-11-23T15:57:49.233Z,37.60
2018-11-23T16:00:20.856Z,35.37
2018-11-23T16:02:49.566Z,36.50
2018-11-23T16:05:18.443Z,39.38
2018-11-23T16:07:47.105Z,36.63
2018-11-23T16:10:19.148Z,36.28
2018-11-23T16:12:49.743Z,37.58
2018-11-23T16:15:18.858Z,34.30
2018-11-23T16:17:47.453Z,39.37
2018-11-23T16:20:19.224Z,38.80
2018-11-23T16:22:49.740Z,38.03
2018-11-23T16:25:18.383Z,37.67
2018-11-23T16:27:48.229Z,38.60
2018-11-23T16:30:23.097Z,38.53
2018-11-23T16:32:52.449Z,45.90
2018-11-23T16:35:24.922Z,46.53
2018-11-23T16:37:54.312Z,42.62
2018-11-23T16:40:25.685Z,47.83
2018-11-23T16:42:54.765Z,39.23
2018-11-23T16:45:26.026Z,38.83
2018-11-23T16:47:55.348Z,40.07
2018-11-23T16:50:24.025Z,38.35
2018-11-23T16:52:53.075Z,40.23
2018-11-23T16:55:22.161Z,35.97
2018-11-23T16:57:52.429Z,32.70
2018-11-23T17:00:23.369Z,35.33
2018-11-23T17:02:52.529Z,33.13
2018-11-23T17:05:24.230Z,38.37
2018-11-23T17:07:53.122Z,43.80
2018-11-23T17:10:21.474Z,34.83
2018-11-23T17:12:49.816Z,32.10
2018-11-23T17:15:21.193Z,36.60
2018-11-23T17:17:50.180Z,45.92
2018-11-23T17:20:20.774Z,48.53
2018-11-23T17:22:50.564Z,53.87
2018-11-23T17:25:20.365Z,48.53
2018-11-23T17:27:49.209Z,42.60
2018-11-23T17:30:22.439Z,45.57
2018-11-23T17:32:50.870Z,52.80
2018-11-23T17:35:19.464Z,42.13
2018-11-23T17:37:48.037Z,42.00
2018-11-23T17:40:17.768Z,44.17
2018-11-23T17:42:46.325Z,31.33
2018-11-23T17:45:17.297Z,31.00
2018-11-23T17:47:45.587Z,30.97
2018-11-23T17:50:16.161Z,30.37
2018-11-23T17:52:45.003Z,30.43
2018-11-23T17:55:13.855Z,28.87
2018-11-23T17:57:42.985Z,30.57
2018-11-23T18:00:18.303Z,29.35
2018-11-23T18:02:47.219Z,30.10
2018-11-23T18:05:16.720Z,33.63
2018-11-23T18:07:45.405Z,38.30
2018-11-23T18:10:19.449Z,40.67
2018-11-23T18:12:48.444Z,43.53
2018-11-23T18:15:20.754Z,44.13
2018-11-23T18:17:50.272Z,51.02
2018-11-23T18:20:20.477Z,51.23
2018-11-23T18:22:49.636Z,60.30
2018-11-23T18:25:19.923Z,47.27
2018-11-23T18:27:48.709Z,54.67
2018-11-23T18:30:17.842Z,51.98
2018-11-23T18:32:46.426Z,41.20
2018-11-23T18:35:14.990Z,37.00
2018-11-23T18:37:43.304Z,46.87
2018-11-23T18:40:12.900Z,41.40
2018-11-23T18:42:41.640Z,37.03
2018-11-23T18:45:11.085Z,35.67
2018-11-23T18:47:39.911Z,39.88
2018-11-23T18:50:10.004Z,51.55
2018-11-23T18:52:38.473Z,45.43
2018-11-23T18:55:07.453Z,43.40
2018-11-23T18:57:36.075Z,46.87
2018-11-23T19:00:05.628Z,52.03
2018-11-23T19:02:33.972Z,47.30
2018-11-23T19:05:02.280Z,51.80
2018-11-23T19:07:31.288Z,57.25
2018-11-23T19:10:00.214Z,64.12
2018-11-23T19:12:28.809Z,57.67
2018-11-23T19:14:57.293Z,61.00
2018-11-23T19:17:25.618Z,51.23
2018-11-23T19:19:53.906Z,66.30
2018-11-23T19:22:22.200Z,48.73
2018-11-23T19:24:50.870Z,51.42
2018-11-23T19:27:19.410Z,52.35
2018-11-23T19:29:47.964Z,61.88
2018-11-23T19:32:16.265Z,46.07
2018-11-23T19:34:44.550Z,48.37
2018-11-23T19:37:12.829Z,50.97
2018-11-23T19:39:41.419Z,57.30
2018-11-23T19:42:10.373Z,44.90
2018-11-23T19:44:38.658Z,43.90
2018-11-23T19:47:06.972Z,47.67
2018-11-23T19:49:35.520Z,46.48
2018-11-23T19:52:03.963Z,39.97
2018-11-23T19:54:32.741Z,41.80
2018-11-23T19:57:01.911Z,34.67
2018-11-23T19:59:30.310Z,40.40
2018-11-23T20:01:58.654Z,38.93
2018-11-23T20:04:27.123Z,31.83
2018-11-23T20:06:55.751Z,31.37
2018-11-23T20:09:24.341Z,29.83
2018-11-23T20:11:52.689Z,28.63
2018-11-23T20:14:21.096Z,30.17
2018-11-23T20:16:49.602Z,35.53
2018-11-23T20:19:18.214Z,28.63
2018-11-23T20:21:46.943Z,31.27
2018-11-23T20:24:15.423Z,28.50
2018-11-23T20:26:44.625Z,29.80
2018-11-23T20:29:12.973Z,33.53
2018-11-23T20:31:41.664Z,30.60
2018-11-23T20:34:10.243Z,32.30
2018-11-23T20:36:38.548Z,28.20
2018-11-23T20:39:08.925Z,24.90
2018-11-23T20:41:37.885Z,25.03
2018-11-23T20:44:07.511Z,22.73
2018-11-23T20:46:36.076Z,27.63
2018-11-23T20:49:05.899Z,27.20
2018-11-23T20:51:34.519Z,31.35
2018-11-23T20:54:02.987Z,23.37
2018-11-23T20:56:31.681Z,24.93
2018-11-23T20:58:59.981Z,28.23
2018-11-23T21:01:28.319Z,27.73
2018-11-23T21:03:56.634Z,22.77
2018-11-23T21:06:25.462Z,26.47
2018-11-23T21:08:55.172Z,26.12
2018-11-23T21:11:23.701Z,25.30
2018-11-23T21:13:52.259Z,24.30
2018-11-23T21:16:20.591Z,23.97
2018-11-23T21:18:49.138Z,17.93
2018-11-23T21:21:17.417Z,26.00
2018-11-23T21:23:45.713Z,21.87
2018-11-23T21:26:14.336Z,19.60
2018-11-23T21:28:42.777Z,20.47
2018-11-23T21:31:11.417Z,24.13
2018-11-23T21:33:39.693Z,23.00
2018-11-23T21:36:08.523Z,24.10
2018-11-23T21:38:37.152Z,20.83
2018-11-23T21:41:06.914Z,27.22
2018-11-23T21:43:35.473Z,20.72
2018-11-23T21:46:03.807Z,22.17
2018-11-23T21:48:32.078Z,20.67
2018-11-23T21:51:00.359Z,20.47
2018-11-23T21:53:28.780Z,23.20
2018-11-23T21:55:57.086Z,22.00
2018-11-23T21:58:25.901Z,24.67
2018-11-23T22:00:54.483Z,19.90
2018-11-23T22:03:22.781Z,22.53
2018-11-23T22:05:51.049Z,18.50
2018-11-23T22:08:20.221Z,23.45
2018-11-23T22:10:50.538Z,22.30
2018-11-23T22:13:21.664Z,22.57
2018-11-23T22:15:52.275Z,20.47
2018-11-23T22:18:22.631Z,21.50
2018-11-23T22:20:50.953Z,19.30
2018-11-23T22:23:20.080Z,20.88
2018-11-23T22:25:48.356Z,21.50
2018-11-23T22:28:16.904Z,22.95
2018-11-23T22:30:45.311Z,23.00
2018-11-23T22:33:13.724Z,22.67
2018-11-23T22:35:48.110Z,26.23
2018-11-23T22:38:10.795Z,24.23
2018-11-23T22:40:39.235Z,23.80
2018-11-23T22:43:07.741Z,24.43
2018-11-23T22:45:36.284Z,27.20
2018-11-23T22:48:05.993Z,26.95
2018-11-23T22:50:34.562Z,23.40
2018-11-23T22:53:02.873Z,27.70
2018-11-23T22:55:31.154Z,24.07
2018-11-23T22:57:59.708Z,27.10
